Latest Weather Observations for Outer Harbor (Black Pole)

IDS60901

Issued at 9:31 pm CDT Thursday 3 December 2020 (issued every 10 minutes, with the page automatically refreshed every 10 minutes)

About weather observations | Map of Adelaide area stations | Latest observations for Adelaide area | Other Formats
Station Details ID: 023052 Name: BLACK POLE Lat: -34.73 Lon: 138.47 Height: 6.27 m
Data from the previous 72 hours. | See also: Recent months for locations in South Australia
Date/Time
CDT
Temp
°C
App
Temp
°C
Dew
Point
°C
Rel
Hum
%
Delta-T
°C
Wind Press
QNH
hPa
Press
MSL
hPa
Rain since
9am
mm
Dir  Spd
km/h
Gust
km/h
Spd
kts
Gust
kts
03/09:30pm - - - - - S 28 32 15 17 - - -
03/09:00pm - - - - - SSW 33 39 18 21 - - -
03/08:30pm - - - - - S 26 32 14 17 - - -
03/08:00pm - - - - - S 32 35 17 19 - - -
03/07:30pm - - - - - S 32 37 17 20 - - -
03/07:00pm - - - - - SSW 30 35 16 19 - - -
03/06:51pm - - - - - SSW 24 33 13 18 - - -
03/06:30pm - - - - - SSW 11 13 6 7 - - -
03/06:00pm - - - - - SSW 13 15 7 8 - - -
03/05:30pm - - - - - SSW 15 17 8 9 - - -
03/05:00pm - - - - - S 13 13 7 7 - - -
03/04:30pm - - - - - SSW 13 15 7 8 - - -
03/04:00pm - - - - - S 7 9 4 5 - - -
03/03:30pm - - - - - SSW 6 9 3 5 - - -
03/03:00pm - - - - - S 7 9 4 5 - - -
03/02:30pm - - - - - SSW 9 11 5 6 - - -
03/02:00pm - - - - - SW 15 15 8 8 - - -
03/01:30pm - - - - - SW 15 19 8 10 - - -
03/01:00pm - - - - - SW 19 20 10 11 - - -
03/12:30pm - - - - - SW 13 15 7 8 - - -
03/12:00pm - - - - - SW 15 17 8 9 - - -
03/11:30am - - - - - SW 9 13 5 7 - - -
03/11:00am - - - - - SW 4 6 2 3 - - -
03/10:30am - - - - - NE 9 13 5 7 - - -
03/10:00am - - - - - NE 15 19 8 10 - - -
03/09:30am - - - - - NE 11 15 6 8 - - -
03/09:00am - - - - - ENE 11 15 6 8 - - -
03/08:30am - - - - - ENE 15 17 8 9 - - -
03/08:00am - - - - - ENE 13 17 7 9 - - -
03/07:30am - - - - - E 15 19 8 10 - - -
03/07:00am - - - - - E 11 13 6 7 - - -
03/06:30am - - - - - E 11 15 6 8 - - -
03/06:00am - - - - - ENE 7 11 4 6 - - -
03/05:30am - - - - - NE 9 13 5 7 - - -
03/05:00am - - - - - NNE 11 13 6 7 - - -
03/04:30am - - - - - NNE 9 13 5 7 - - -
03/04:00am - - - - - NE 6 7 3 4 - - -
03/03:30am - - - - - NE 7 9 4 5 - - -
03/03:00am - - - - - NE 7 9 4 5 - - -
03/02:30am - - - - - NE 6 9 3 5 - - -
03/02:00am - - - - - ENE 6 7 3 4 - - -
03/01:30am - - - - - E 6 7 3 4 - - -
03/01:00am - - - - - E 7 13 4 7 - - -
03/12:30am - - - - - ESE 15 19 8 10 - - -
03/12:00am - - - - - SE 7 11 4 6 - - -
 
Date/Time
CDT
Temp
°C
App
Temp
°C
Dew
Point
°C
Rel
Hum
%
Delta-T
°C
Wind Press
QNH
hPa
Press
MSL
hPa
Rain since
9am
mm
Dir  Spd
km/h
Gust
km/h
Spd
kts
Gust
kts
02/11:30pm - - - - - SE 11 13 6 7 - - -
02/11:00pm - - - - - SE 15 17 8 9 - - -
02/10:30pm - - - - - SE 17 20 9 11 - - -
02/10:00pm - - - - - SE 17 20 9 11 - - -
02/09:30pm - - - - - SSE 22 28 12 15 - - -
02/09:00pm - - - - - SSE 30 35 16 19 - - -
02/08:30pm - - - - - S 33 39 18 21 - - -
02/08:00pm - - - - - S 33 39 18 21 - - -
02/07:30pm - - - - - S 33 39 18 21 - - -
02/07:00pm - - - - - SSW 41 48 22 26 - - -
02/06:30pm - - - - - SSW 43 50 23 27 - - -
02/06:00pm - - - - - SSW 41 48 22 26 - - -
02/05:30pm - - - - - SSW 39 44 21 24 - - -
02/05:00pm - - - - - SSW 37 43 20 23 - - -
02/04:30pm - - - - - SSW 37 41 20 22 - - -
02/04:00pm - - - - - SSW 35 43 19 23 - - -
02/03:30pm - - - - - SSW 33 41 18 22 - - -
02/03:00pm - - - - - SSW 30 37 16 20 - - -
02/02:30pm - - - - - SW 28 33 15 18 - - -
02/02:00pm - - - - - SW 24 32 13 17 - - -
02/01:30pm - - - - - SW 24 32 13 17 - - -
02/01:00pm - - - - - SW 22 26 12 14 - - -
02/12:30pm - - - - - SSW 22 28 12 15 - - -
02/12:00pm - - - - - SSW 22 30 12 16 - - -
02/11:30am - - - - - SSW 22 28 12 15 - - -
02/11:00am - - - - - SSW 20 28 11 15 - - -
02/10:30am - - - - - S 20 28 11 15 - - -
02/10:00am - - - - - S 26 32 14 17 - - -
02/09:30am - - - - - S 19 26 10 14 - - -
02/09:00am - - - - - SSE 7 15 4 8 - - -
02/08:30am - - - - - SSE 11 17 6 9 - - -
02/08:00am - - - - - SE 13 19 7 10 - - -
02/07:30am - - - - - SSE 19 30 10 16 - - -
02/07:00am - - - - - S 20 30 11 16 - - -
02/06:30am - - - - - S 19 28 10 15 - - -
02/06:00am - - - - - SSW 20 28 11 15 - - -
02/05:30am - - - - - SW 28 35 15 19 - - -
02/05:00am - - - - - SSW 32 41 17 22 - - -
02/04:30am - - - - - SSW 32 39 17 21 - - -
02/04:00am - - - - - SSW 22 33 12 18 - - -
02/03:30am - - - - - SSW 24 32 13 17 - - -
02/03:00am - - - - - SSW 26 35 14 19 - - -
02/02:30am - - - - - SSW 32 43 17 23 - - -
02/02:00am - - - - - SSW 32 41 17 22 - - -
02/01:30am - - - - - SSW 32 43 17 23 - - -
02/01:00am - - - - - SSW 33 44 18 24 - - -
02/12:30am - - - - - SSW 32 39 17 21 - - -
02/12:00am - - - - - SSW 32 39 17 21 - - -
 
Date/Time
CDT
Temp
°C
App
Temp
°C
Dew
Point
°C
Rel
Hum
%
Delta-T
°C
Wind Press
QNH
hPa
Press
MSL
hPa
Rain since
9am
mm
Dir  Spd
km/h
Gust
km/h
Spd
kts
Gust
kts
01/11:30pm - - - - - SW 33 43 18 23 - - -
01/11:00pm - - - - - SW 32 41 17 22 - - -
01/10:30pm - - - - - SW 30 37 16 20 - - -
01/10:00pm - - - - - WSW 35 43 19 23 - - -
01/09:30pm - - - - - SW 37 46 20 25 - - -
01/09:00pm - - - - - SW 41 46 22 25 - - -
01/08:30pm - - - - - SW 44 54 24 29 - - -
01/08:00pm - - - - - SW 44 56 24 30 - - -
01/07:30pm - - - - - SW 44 56 24 30 - - -
01/07:00pm - - - - - SW 41 50 22 27 - - -
01/06:30pm - - - - - SW 46 57 25 31 - - -
01/06:00pm - - - - - SW 46 57 25 31 - - -
01/05:30pm - - - - - SW 46 57 25 31 - - -
01/05:00pm - - - - - SW 44 56 24 30 - - -
01/04:30pm - - - - - SW 44 54 24 29 - - -
01/04:00pm - - - - - SW 44 52 24 28 - - -
01/03:30pm - - - - - SSW 43 52 23 28 - - -
01/03:00pm - - - - - SSW 43 50 23 27 - - -
01/02:30pm - - - - - SW 46 57 25 31 - - -
01/02:00pm - - - - - SW 44 50 24 27 - - -
01/01:30pm - - - - - SW 43 52 23 28 - - -
01/01:00pm - - - - - SW 43 50 23 27 - - -
01/12:30pm - - - - - SW 41 46 22 25 - - -
01/12:00pm - - - - - SW 41 50 22 27 - - -
01/11:52am - - - - - SW 41 52 22 28 - - -
01/11:30am - - - - - WSW 41 52 22 28 - - -
01/11:00am - - - - - WSW 41 50 22 27 - - -
01/10:30am - - - - - WSW 44 54 24 29 - - -
01/10:00am - - - - - W 44 54 24 29 - - -
01/09:30am - - - - - W 37 46 20 25 - - -
01/09:00am - - - - - W 37 44 20 24 - - -
01/08:30am - - - - - W 35 43 19 23 - - -
01/08:00am - - - - - WSW 44 54 24 29 - - -
01/07:30am - - - - - W 41 50 22 27 - - -
01/07:00am - - - - - W 41 52 22 28 - - -
01/06:30am - - - - - W 37 48 20 26 - - -
01/06:00am - - - - - WSW 26 33 14 18 - - -
01/05:30am - - - - - W 35 46 19 25 - - -
01/05:11am - - - - - W 32 52 17 28 - - -
01/05:00am - - - - - W 37 48 20 26 - - -
01/04:30am - - - - - W 30 37 16 20 - - -
01/04:00am - - - - - W 33 44 18 24 - - -
01/03:30am - - - - - WSW 39 50 21 27 - - -
01/03:00am - - - - - WSW 37 44 20 24 - - -
01/02:48am - - - - - W 44 54 24 29 - - -
01/02:31am - - - - - WNW 20 54 11 29 - - -
01/02:30am - - - - - WNW 17 48 9 26 - - -
01/02:00am - - - - - NE 9 11 5 6 - - -
01/01:30am - - - - - WNW 9 15 5 8 - - -
01/01:00am - - - - - W 15 24 8 13 - - -
01/12:30am - - - - - NNW 6 11 3 6 - - -
01/12:00am - - - - - NE 15 19 8 10 - - -
 
Date/Time
CDT
Temp
°C
App
Temp
°C
Dew
Point
°C
Rel
Hum
%
Delta-T
°C
Wind Press
QNH
hPa
Press
MSL
hPa
Rain since
9am
mm
Dir  Spd
km/h
Gust
km/h
Spd
kts
Gust
kts
30/11:30pm - - - - - NE 22 28 12 15 - - -
30/11:00pm - - - - - ENE 28 32 15 17 - - -
30/10:30pm - - - - - ENE 22 28 12 15 - - -
30/10:00pm - - - - - ENE 20 26 11 14 - - -

Latest Capital City Observations: Canberra | Sydney | Melbourne | Brisbane | Adelaide | Perth | Hobart | Darwin

Other formats

Comma delimited format used in spreadsheet applications
http://www.bom.gov.au/fwo/IDS60901/IDS60901.95675.axf

JavaScript Object Notation format (JSON) in row-major order
http://www.bom.gov.au/fwo/IDS60901/IDS60901.95675.json

Data quality

Most of these data are generated automatically and are frequently updated. Quality checks on data are not normally performed. It is possible for incorrect values to appear. Refer to information at About Latest Weather Observations and please check the disclaimer before using these data.